createdAt,value
2022-12-18T00:01:23.362Z,-4.59
2022-12-18T00:03:50.372Z,-4.61
2022-12-18T00:06:17.732Z,-4.68
2022-12-18T00:08:45.143Z,-4.72
2022-12-18T00:11:16.314Z,-4.76
2022-12-18T00:13:43.132Z,-4.85
2022-12-18T00:16:15.629Z,-4.92
2022-12-18T00:18:42.861Z,-4.81
2022-12-18T00:21:11.089Z,-5.05
2022-12-18T00:23:38.522Z,-4.97
2022-12-18T00:26:08.816Z,-5.13
2022-12-18T00:28:35.302Z,-5.32
2022-12-18T00:31:10.294Z,-5.29
2022-12-18T00:33:37.520Z,-5.19
2022-12-18T00:36:24.836Z,-5.34
2022-12-18T00:38:51.494Z,-5.36
2022-12-18T00:41:39.204Z,-5.31
2022-12-18T00:44:06.973Z,-5.27
2022-12-18T00:46:33.442Z,-5.40
2022-12-18T00:48:59.952Z,-5.25
2022-12-18T00:51:27.520Z,-5.29
2022-12-18T00:53:53.973Z,-5.22
2022-12-18T00:56:20.420Z,-5.15
2022-12-18T00:58:46.812Z,-5.23
2022-12-18T01:01:15.738Z,-5.28
2022-12-18T01:03:42.345Z,-5.26
2022-12-18T01:06:10.951Z,-5.20
2022-12-18T01:08:37.374Z,-5.22
2022-12-18T01:11:12.824Z,-5.30
2022-12-18T01:13:40.753Z,-5.15
2022-12-18T01:16:07.701Z,-5.14
2022-12-18T01:18:34.258Z,-5.10
2022-12-18T01:21:00.786Z,-4.98
2022-12-18T01:23:27.236Z,-4.93
2022-12-18T01:25:53.677Z,-4.79
2022-12-18T01:28:20.418Z,-4.98
2022-12-18T01:30:49.290Z,-4.82
2022-12-18T01:33:15.822Z,-4.76
2022-12-18T01:35:45.619Z,-4.73
2022-12-18T01:38:12.068Z,-4.66
2022-12-18T01:40:38.568Z,-4.62
2022-12-18T01:43:05.081Z,-4.61
2022-12-18T01:45:32.574Z,-4.56
2022-12-18T01:48:07.165Z,-4.47
2022-12-18T01:50:38.370Z,-4.45
2022-12-18T01:53:17.026Z,-4.33
2022-12-18T01:55:51.827Z,-4.24
2022-12-18T01:58:20.033Z,-4.22
2022-12-18T02:00:46.879Z,-4.05
2022-12-18T02:03:16.788Z,-3.99
2022-12-18T02:05:47.383Z,-3.95
2022-12-18T02:08:29.189Z,-3.78
2022-12-18T02:11:15.453Z,-3.80
2022-12-18T02:13:52.167Z,-3.74
2022-12-18T02:16:29.093Z,-3.69
2022-12-18T02:19:01.275Z,-3.74
2022-12-18T02:21:49.015Z,-3.78
2022-12-18T02:24:44.632Z,-3.82
2022-12-18T02:27:13.610Z,-3.78
2022-12-18T02:29:44.971Z,-3.65
2022-12-18T02:32:15.567Z,-3.62
2022-12-18T02:34:43.334Z,-3.61
2022-12-18T02:37:15.007Z,-3.55
2022-12-18T02:39:43.213Z,-3.67
2022-12-18T02:42:10.039Z,-3.63
2022-12-18T02:44:44.411Z,-3.62
2022-12-18T02:47:16.167Z,-3.63
2022-12-18T02:49:59.999Z,-3.73
2022-12-18T02:52:47.540Z,-3.67
2022-12-18T02:55:37.160Z,-3.57
2022-12-18T02:58:18.342Z,-3.50
2022-12-18T03:01:09.790Z,-3.50
2022-12-18T03:03:41.077Z,-3.55
2022-12-18T03:06:17.441Z,-3.60
2022-12-18T03:08:51.176Z,-3.59
2022-12-18T03:11:37.763Z,-3.66
2022-12-18T03:14:05.047Z,-3.61
2022-12-18T03:16:34.643Z,-3.55
2022-12-18T03:19:08.539Z,-3.55
2022-12-18T03:21:41.427Z,-3.59
2022-12-18T03:24:09.201Z,-3.58
2022-12-18T03:26:36.818Z,-3.69
2022-12-18T03:29:09.050Z,-3.68
2022-12-18T03:31:36.014Z,-3.65
2022-12-18T03:34:06.896Z,-3.60
2022-12-18T03:36:33.337Z,-3.66
2022-12-18T03:38:59.922Z,-3.67
2022-12-18T03:41:49.738Z,-3.66
2022-12-18T03:44:31.441Z,-3.62
2022-12-18T03:47:31.549Z,-3.62
2022-12-18T03:50:33.227Z,-3.51
2022-12-18T03:53:14.839Z,-3.63
2022-12-18T03:55:41.757Z,-3.76
2022-12-18T03:58:17.464Z,-3.73
2022-12-18T04:00:52.276Z,-3.69
2022-12-18T04:03:22.689Z,-3.75
2022-12-18T04:05:53.852Z,-3.83
2022-12-18T04:08:22.702Z,-3.76
2022-12-18T04:10:50.507Z,-3.78
2022-12-18T04:13:30.264Z,-3.83
2022-12-18T04:15:57.112Z,-3.82
2022-12-18T04:18:23.548Z,-3.81
2022-12-18T04:20:50.041Z,-3.86
2022-12-18T04:23:16.477Z,-4.06
2022-12-18T04:25:45.337Z,-3.84
2022-12-18T04:28:11.829Z,-3.93
2022-12-18T04:30:38.290Z,-3.90
2022-12-18T04:33:13.241Z,-4.01
2022-12-18T04:35:42.698Z,-3.92
2022-12-18T04:38:09.731Z,-3.96
2022-12-18T04:40:36.776Z,-3.88
2022-12-18T04:43:04.302Z,-3.99
2022-12-18T04:45:31.961Z,-4.00
2022-12-18T04:48:03.267Z,-4.06
2022-12-18T04:50:30.479Z,-4.05
2022-12-18T04:52:57.496Z,-4.04
2022-12-18T04:55:25.526Z,-4.19
2022-12-18T04:57:51.938Z,-4.06
2022-12-18T05:00:18.554Z,-4.07
2022-12-18T05:02:45.166Z,-4.11
2022-12-18T05:05:14.584Z,-4.10
2022-12-18T05:07:41.040Z,-4.03
2022-12-18T05:10:08.599Z,-4.00
2022-12-18T05:12:56.657Z,-4.14
2022-12-18T05:15:23.126Z,-4.05
2022-12-18T05:17:49.544Z,-4.14
2022-12-18T05:20:16.081Z,-4.10
2022-12-18T05:22:42.644Z,-4.03
2022-12-18T05:25:09.457Z,-4.10
2022-12-18T05:27:36.114Z,-4.08
2022-12-18T05:30:02.737Z,-3.98
2022-12-18T05:32:29.184Z,-4.02
2022-12-18T05:34:58.141Z,-4.02
2022-12-18T05:37:24.686Z,-4.04
2022-12-18T05:39:51.114Z,-4.04
2022-12-18T05:42:17.531Z,-4.13
2022-12-18T05:44:44.815Z,-4.10
2022-12-18T05:47:11.233Z,-4.16
2022-12-18T05:49:37.641Z,-4.21
2022-12-18T05:52:04.205Z,-4.07
2022-12-18T05:54:30.666Z,-4.13
2022-12-18T05:56:57.076Z,-4.15
2022-12-18T05:59:23.607Z,-4.17
2022-12-18T06:01:50.122Z,-4.08
2022-12-18T06:04:18.929Z,-4.21
2022-12-18T06:06:45.396Z,-4.12
2022-12-18T06:09:13.081Z,-4.22
2022-12-18T06:11:40.841Z,-4.14
2022-12-18T06:14:07.943Z,-4.16
2022-12-18T06:16:35.708Z,-4.16
2022-12-18T06:19:06.321Z,-4.20
2022-12-18T06:21:33.197Z,-4.10
2022-12-18T06:24:00.758Z,-4.17
2022-12-18T06:26:28.549Z,-4.20
2022-12-18T06:28:55.399Z,-4.10
2022-12-18T06:31:21.935Z,-4.23
2022-12-18T06:33:48.457Z,-4.15
2022-12-18T06:36:15.117Z,-4.23
2022-12-18T06:38:43.228Z,-4.25
2022-12-18T06:41:17.100Z,-4.10
2022-12-18T06:43:53.568Z,-4.25
2022-12-18T06:46:22.201Z,-4.28
2022-12-18T06:48:50.827Z,-4.35
2022-12-18T06:51:19.194Z,-4.29
2022-12-18T06:53:45.709Z,-4.25
2022-12-18T06:56:13.222Z,-4.29
2022-12-18T06:58:40.376Z,-4.35
2022-12-18T07:01:09.722Z,-4.31
2022-12-18T07:03:36.483Z,-4.17
2022-12-18T07:06:03.492Z,-4.12
2022-12-18T07:08:31.209Z,-4.09
2022-12-18T07:10:57.920Z,-4.06
2022-12-18T07:13:32.977Z,-4.30
2022-12-18T07:16:17.146Z,-4.25
2022-12-18T07:18:46.215Z,-4.23
2022-12-18T07:21:15.884Z,-4.23
2022-12-18T07:23:42.958Z,-4.37
2022-12-18T07:26:13.125Z,-4.15
2022-12-18T07:28:42.180Z,-4.06
2022-12-18T07:31:17.369Z,-4.17
2022-12-18T07:33:44.734Z,-4.20
2022-12-18T07:36:11.953Z,-4.06
2022-12-18T07:38:38.594Z,-4.06
2022-12-18T07:41:10.455Z,-3.99
2022-12-18T07:43:42.332Z,-3.89
2022-12-18T07:46:09.851Z,-3.75
2022-12-18T07:48:36.476Z,-3.75
2022-12-18T07:51:05.179Z,-3.33
2022-12-18T07:53:32.299Z,-2.78
2022-12-18T07:58:52.654Z,-1.94
2022-12-18T08:01:19.224Z,-1.65
2022-12-18T08:03:47.721Z,-1.35
2022-12-18T08:06:14.649Z,-1.13
2022-12-18T08:08:43.231Z,-0.69
2022-12-18T08:11:09.799Z,-0.44
2022-12-18T08:13:36.458Z,-0.02
2022-12-18T08:16:08.575Z,0.35
2022-12-18T08:18:36.667Z,-0.04
2022-12-18T08:21:17.933Z,0.44
2022-12-18T08:23:55.188Z,0.47
2022-12-18T08:26:25.076Z,0.31
2022-12-18T08:28:51.991Z,0.09
2022-12-18T08:31:19.496Z,0.25
2022-12-18T08:33:48.537Z,-0.30
2022-12-18T08:36:17.347Z,0.32
2022-12-18T08:38:44.445Z,0.61
2022-12-18T08:41:14.177Z,0.47
2022-12-18T08:44:01.161Z,-0.38
2022-12-18T08:46:33.493Z,0.20
2022-12-18T08:49:00.162Z,0.53
2022-12-18T08:51:27.287Z,0.88
2022-12-18T08:53:53.804Z,1.12
2022-12-18T08:56:20.289Z,0.55
2022-12-18T08:58:46.792Z,0.56
2022-12-18T09:01:14.593Z,0.73
2022-12-18T09:03:41.676Z,0.04
2022-12-18T09:06:08.756Z,0.76
2022-12-18T09:08:38.116Z,0.33
2022-12-18T09:11:05.112Z,0.76
2022-12-18T09:13:31.698Z,0.46
2022-12-18T09:15:58.208Z,0.50
2022-12-18T09:18:25.344Z,0.45
2022-12-18T09:20:53.722Z,0.83
2022-12-18T09:23:20.833Z,0.82
2022-12-18T09:25:47.308Z,0.63
2022-12-18T09:28:15.864Z,1.12
2022-12-18T09:30:44.203Z,0.64
2022-12-18T09:33:10.798Z,1.22
2022-12-18T09:35:38.433Z,1.60
2022-12-18T09:38:05.011Z,1.61
2022-12-18T09:40:37.435Z,1.90
2022-12-18T09:43:05.904Z,2.27
2022-12-18T09:45:42.682Z,2.16
2022-12-18T09:48:35.836Z,1.87
2022-12-18T09:51:06.493Z,2.03
2022-12-18T09:53:36.313Z,1.80
2022-12-18T09:56:05.093Z,1.56
2022-12-18T09:59:01.293Z,2.06
2022-12-18T10:01:37.664Z,1.71
2022-12-18T10:04:10.003Z,1.08
2022-12-18T10:06:41.217Z,1.24
2022-12-18T10:09:13.891Z,1.48
2022-12-18T10:12:22.365Z,1.47
2022-12-18T10:15:11.663Z,2.02
2022-12-18T10:18:21.668Z,1.86
2022-12-18T10:20:50.845Z,2.17
2022-12-18T10:23:38.195Z,2.57
2022-12-18T10:26:07.609Z,2.58
2022-12-18T10:28:40.164Z,2.77
2022-12-18T10:31:08.210Z,1.88
2022-12-18T10:33:35.545Z,2.41
2022-12-18T10:36:02.009Z,2.37
2022-12-18T10:38:30.790Z,2.58
2022-12-18T10:41:02.644Z,2.06
2022-12-18T10:43:37.171Z,2.37
2022-12-18T10:46:09.727Z,2.50
2022-12-18T10:48:50.526Z,2.50
2022-12-18T10:51:38.248Z,2.26
2022-12-18T10:54:24.397Z,2.40
2022-12-18T10:56:50.847Z,2.68
2022-12-18T10:59:18.806Z,2.08
2022-12-18T11:01:52.436Z,2.44
2022-12-18T11:04:27.374Z,1.81
2022-12-18T11:07:01.242Z,2.40
2022-12-18T11:09:38.530Z,2.58
2022-12-18T11:12:25.312Z,1.66
2022-12-18T11:14:53.384Z,1.67
2022-12-18T11:17:58.315Z,1.64
2022-12-18T11:21:02.486Z,2.17
2022-12-18T11:23:30.291Z,1.81
2022-12-18T11:25:59.334Z,1.47
2022-12-18T11:28:42.405Z,1.58
2022-12-18T11:31:24.019Z,1.63
2022-12-18T11:36:50.303Z,1.40
2022-12-18T11:39:21.020Z,1.22
2022-12-18T11:42:11.132Z,0.68
2022-12-18T11:44:49.188Z,0.67
2022-12-18T11:47:31.198Z,0.93
2022-12-18T11:50:12.634Z,0.91
2022-12-18T11:52:43.654Z,0.64
2022-12-18T11:55:16.184Z,0.79
2022-12-18T11:57:49.593Z,0.78
2022-12-18T12:00:22.473Z,0.14
2022-12-18T12:03:14.795Z,-0.15
2022-12-18T12:05:53.580Z,-0.08
2022-12-18T12:08:39.480Z,-0.35
2022-12-18T12:11:15.055Z,-0.27
2022-12-18T12:14:00.572Z,-0.33
2022-12-18T12:16:37.636Z,-0.14
2022-12-18T12:19:30.175Z,-0.28
2022-12-18T12:22:08.602Z,-0.05
2022-12-18T12:25:13.382Z,-0.17
2022-12-18T12:27:50.596Z,0.09
2022-12-18T12:30:23.316Z,0.30
2022-12-18T12:33:19.329Z,0.65
2022-12-18T12:36:02.621Z,0.78
2022-12-18T12:38:49.866Z,1.25
2022-12-18T12:41:40.941Z,1.57
2022-12-18T12:44:11.080Z,1.05
2022-12-18T12:46:42.931Z,0.80
2022-12-18T12:49:14.529Z,1.06
2022-12-18T12:51:43.230Z,0.72
2022-12-18T12:54:21.949Z,0.86
2022-12-18T12:57:13.310Z,0.47
2022-12-18T13:00:07.336Z,0.53
2022-12-18T13:02:46.190Z,0.14
2022-12-18T13:05:47.366Z,-0.04
2022-12-18T13:08:31.108Z,-0.46
2022-12-18T13:14:30.582Z,-0.05
2022-12-18T13:17:27.374Z,-0.13
2022-12-18T13:20:11.072Z,-0.43
2022-12-18T13:22:47.210Z,-0.31
2022-12-18T13:25:33.318Z,-0.59
2022-12-18T13:28:07.522Z,-0.72
2022-12-18T13:30:33.930Z,-1.26
2022-12-18T13:33:16.019Z,-1.26
2022-12-18T13:35:48.770Z,-1.56
2022-12-18T13:38:34.258Z,-1.43
2022-12-18T13:41:15.886Z,-1.57
2022-12-18T13:43:47.635Z,-1.62
2022-12-18T13:46:31.678Z,-1.61
2022-12-18T13:49:02.391Z,-1.74
2022-12-18T13:51:32.067Z,-1.66
2022-12-18T13:54:03.455Z,-1.59
2022-12-18T13:56:32.753Z,-1.56
2022-12-18T13:59:25.518Z,-1.64
2022-12-18T14:01:56.006Z,-1.73
2022-12-18T14:04:27.671Z,-2.08
2022-12-18T14:07:07.523Z,-1.93
2022-12-18T14:09:37.835Z,-2.05
2022-12-18T14:12:25.025Z,-2.17
2022-12-18T14:14:55.185Z,-2.15
2022-12-18T14:17:21.999Z,-2.16
2022-12-18T14:19:52.125Z,-2.24
2022-12-18T14:22:28.902Z,-2.32
2022-12-18T14:25:14.044Z,-2.60
2022-12-18T14:27:50.681Z,-2.47
2022-12-18T14:30:36.806Z,-2.40
2022-12-18T14:33:14.928Z,-2.42
2022-12-18T14:35:53.859Z,-2.57
2022-12-18T14:38:32.128Z,-2.62
2022-12-18T14:41:00.892Z,-2.59
2022-12-18T14:43:29.533Z,-2.51
2022-12-18T14:45:57.032Z,-2.58
2022-12-18T14:48:35.937Z,-2.72
2022-12-18T14:51:28.343Z,-2.57
2022-12-18T14:53:55.495Z,-2.60
2022-12-18T14:56:23.839Z,-2.96
2022-12-18T14:58:54.194Z,-2.76
2022-12-18T15:01:32.899Z,-2.96
2022-12-18T15:04:00.476Z,-2.94
2022-12-18T15:06:37.156Z,-2.73
2022-12-18T15:09:23.267Z,-2.67
2022-12-18T15:11:57.569Z,-2.76
2022-12-18T15:14:42.657Z,-2.72
2022-12-18T15:17:35.203Z,-2.78
2022-12-18T15:20:04.427Z,-2.96
2022-12-18T15:22:36.320Z,-3.16
2022-12-18T15:25:04.920Z,-3.33
2022-12-18T15:27:36.709Z,-3.41
2022-12-18T15:30:19.061Z,-3.71
2022-12-18T15:32:45.944Z,-3.93
2022-12-18T15:35:12.272Z,-3.86
2022-12-18T15:37:40.426Z,-3.85
2022-12-18T15:40:22.345Z,-3.85
2022-12-18T15:43:08.175Z,-3.99
2022-12-18T15:45:34.587Z,-4.05
2022-12-18T15:48:01.051Z,-3.99
2022-12-18T15:50:27.530Z,-4.06
2022-12-18T15:52:59.103Z,-4.17
2022-12-18T15:55:43.965Z,-4.29
2022-12-18T15:58:15.315Z,-4.36
2022-12-18T16:00:42.972Z,-4.48
2022-12-18T16:03:10.258Z,-4.47
2022-12-18T16:05:36.913Z,-4.48
2022-12-18T16:08:03.389Z,-4.61
2022-12-18T16:10:30.210Z,-4.71
2022-12-18T16:12:56.696Z,-4.74
2022-12-18T16:15:24.987Z,-4.83
2022-12-18T16:17:52.605Z,-4.86
2022-12-18T16:20:21.689Z,-4.84
2022-12-18T16:22:48.753Z,-4.86
2022-12-18T16:25:21.131Z,-4.96
2022-12-18T16:27:48.005Z,-4.91
2022-12-18T16:30:16.785Z,-4.89
2022-12-18T16:32:43.490Z,-4.87
2022-12-18T16:35:14.547Z,-5.08
2022-12-18T16:37:41.769Z,-4.95
2022-12-18T16:40:10.921Z,-4.99
2022-12-18T16:42:41.504Z,-5.04
2022-12-18T16:45:09.401Z,-4.95
2022-12-18T16:47:36.091Z,-4.90
2022-12-18T16:50:02.569Z,-4.90
2022-12-18T16:52:30.222Z,-4.90
2022-12-18T16:54:56.921Z,-4.86
2022-12-18T16:57:25.560Z,-4.92
2022-12-18T16:59:52.284Z,-4.89
2022-12-18T17:02:28.614Z,-5.11
2022-12-18T17:04:58.872Z,-5.21
2022-12-18T17:07:26.382Z,-5.31
2022-12-18T17:09:54.151Z,-5.19
2022-12-18T17:12:21.123Z,-5.16
2022-12-18T17:14:47.766Z,-5.18
2022-12-18T17:17:23.025Z,-5.23
2022-12-18T17:19:50.739Z,-5.40
2022-12-18T17:22:17.408Z,-5.46
2022-12-18T17:24:46.491Z,-5.54
2022-12-18T17:27:14.197Z,-5.68
2022-12-18T17:29:47.384Z,-5.66
2022-12-18T17:32:17.971Z,-5.62
2022-12-18T17:35:03.916Z,-5.65
2022-12-18T17:37:35.267Z,-5.71
2022-12-18T17:40:02.756Z,-5.71
2022-12-18T17:42:30.511Z,-5.85
2022-12-18T17:44:56.997Z,-5.78
2022-12-18T17:47:23.549Z,-5.90
2022-12-18T17:49:51.169Z,-5.93
2022-12-18T17:52:18.021Z,-6.01
2022-12-18T17:54:46.954Z,-6.00
2022-12-18T17:57:13.889Z,-5.93
2022-12-18T17:59:40.352Z,-5.98
2022-12-18T18:02:07.378Z,-5.92
2022-12-18T18:04:34.911Z,-5.92
2022-12-18T18:07:01.444Z,-5.80
2022-12-18T18:09:27.915Z,-5.82
2022-12-18T18:12:13.178Z,-5.79
2022-12-18T18:14:39.758Z,-5.93
2022-12-18T18:17:06.221Z,-6.08
2022-12-18T18:19:33.566Z,-6.15
2022-12-18T18:22:00.438Z,-6.22
2022-12-18T18:24:27.741Z,-6.16
2022-12-18T18:26:54.230Z,-6.21
2022-12-18T18:29:23.557Z,-6.28
2022-12-18T18:31:50.278Z,-6.29
2022-12-18T18:34:25.770Z,-6.30
2022-12-18T18:36:52.362Z,-6.28
2022-12-18T18:39:19.481Z,-6.24
2022-12-18T18:41:47.969Z,-6.29
2022-12-18T18:44:18.477Z,-6.30
2022-12-18T18:46:45.206Z,-6.35
2022-12-18T18:49:17.758Z,-6.45
2022-12-18T18:51:44.178Z,-6.64
2022-12-18T18:54:10.877Z,-6.56
2022-12-18T18:59:31.607Z,-6.78
2022-12-18T19:02:00.010Z,-6.97
2022-12-18T19:04:31.698Z,-6.97
2022-12-18T19:06:58.152Z,-7.02
2022-12-18T19:09:24.709Z,-6.96
2022-12-18T19:12:11.136Z,-6.88
2022-12-18T19:14:37.844Z,-6.81
2022-12-18T19:17:04.644Z,-6.86
2022-12-18T19:19:32.222Z,-6.90
2022-12-18T19:21:59.253Z,-6.98
2022-12-18T19:24:25.739Z,-7.07
2022-12-18T19:26:58.077Z,-7.08
2022-12-18T19:29:24.975Z,-7.21
2022-12-18T19:31:51.665Z,-7.17
2022-12-18T19:34:18.171Z,-7.13
2022-12-18T19:36:44.806Z,-7.21
2022-12-18T19:39:15.538Z,-7.22
2022-12-18T19:41:44.301Z,-7.25
2022-12-18T19:44:13.755Z,-7.20
2022-12-18T19:46:54.755Z,-7.25
2022-12-18T19:49:21.271Z,-7.30
2022-12-18T19:51:47.764Z,-7.56
2022-12-18T19:54:18.076Z,-7.57
2022-12-18T19:56:47.567Z,-7.56
2022-12-18T19:59:14.136Z,-7.56
2022-12-18T20:01:44.474Z,-7.53
2022-12-18T20:04:12.452Z,-7.55
2022-12-18T20:06:53.229Z,-7.55
2022-12-18T20:09:20.603Z,-7.57
2022-12-18T20:11:48.500Z,-7.51
2022-12-18T20:14:19.638Z,-7.61
2022-12-18T20:16:51.050Z,-7.61
2022-12-18T20:19:18.543Z,-7.68
2022-12-18T20:21:45.326Z,-7.66
2022-12-18T20:24:12.287Z,-7.72
2022-12-18T20:26:38.884Z,-7.82
2022-12-18T20:29:05.536Z,-7.84
2022-12-18T20:31:32.555Z,-7.82
2022-12-18T20:34:01.549Z,-7.88
2022-12-18T20:36:29.507Z,-7.96
2022-12-18T20:39:00.542Z,-7.99
2022-12-18T20:41:31.600Z,-7.98
2022-12-18T20:44:04.805Z,-8.02
2022-12-18T20:46:32.568Z,-8.10
2022-12-18T20:48:59.179Z,-8.14
2022-12-18T20:51:28.007Z,-8.08
2022-12-18T20:53:55.674Z,-8.15
2022-12-18T20:56:22.782Z,-8.07
2022-12-18T20:58:50.523Z,-8.09
2022-12-18T21:01:21.623Z,-8.06
2022-12-18T21:03:48.728Z,-8.14
2022-12-18T21:06:16.642Z,-8.13
2022-12-18T21:08:43.208Z,-8.13
2022-12-18T21:11:40.676Z,-8.09
2022-12-18T21:14:13.040Z,-8.09
2022-12-18T21:16:43.819Z,-8.05
2022-12-18T21:19:21.245Z,-8.17
2022-12-18T21:21:47.884Z,-7.93
2022-12-18T21:24:14.482Z,-7.94
2022-12-18T21:26:45.815Z,-7.93
2022-12-18T21:29:21.670Z,-7.88
2022-12-18T21:31:48.558Z,-7.79
2022-12-18T21:34:25.552Z,-7.79
2022-12-18T21:36:52.567Z,-7.87
2022-12-18T21:39:19.305Z,-7.83
2022-12-18T21:42:07.185Z,-7.86
2022-12-18T21:44:38.096Z,-7.86
2022-12-18T21:47:21.748Z,-7.85
2022-12-18T21:49:51.266Z,-7.81
2022-12-18T21:52:17.749Z,-7.78
2022-12-18T21:54:44.275Z,-7.89
2022-12-18T21:57:11.031Z,-7.88
2022-12-18T21:59:39.868Z,-7.80
2022-12-18T22:02:14.680Z,-7.81
2022-12-18T22:05:20.072Z,-7.82
2022-12-18T22:08:26.150Z,-7.86
2022-12-18T22:10:53.042Z,-7.97
2022-12-18T22:13:19.614Z,-7.93
2022-12-18T22:15:47.293Z,-7.90
2022-12-18T22:18:13.883Z,-7.92
2022-12-18T22:20:40.314Z,-7.88
2022-12-18T22:23:06.820Z,-7.94
2022-12-18T22:25:34.430Z,-7.86
2022-12-18T22:28:20.103Z,-7.84
2022-12-18T22:30:46.595Z,-7.87
2022-12-18T22:33:13.044Z,-7.88
2022-12-18T22:35:39.679Z,-7.87
2022-12-18T22:38:07.667Z,-7.92
2022-12-18T22:40:34.118Z,-7.89
2022-12-18T22:43:00.766Z,-7.97
2022-12-18T22:45:27.836Z,-7.96
2022-12-18T22:47:54.458Z,-8.03
2022-12-18T22:50:20.990Z,-8.12
2022-12-18T22:52:47.453Z,-8.06
2022-12-18T22:55:13.914Z,-8.06
2022-12-18T22:57:41.149Z,-8.07
2022-12-18T23:00:15.662Z,-8.08
2022-12-18T23:02:44.019Z,-8.05
2022-12-18T23:05:10.715Z,-8.07
2022-12-18T23:07:37.176Z,-8.00
2022-12-18T23:10:03.940Z,-7.95
2022-12-18T23:12:30.391Z,-7.96
2022-12-18T23:14:58.621Z,-7.97
2022-12-18T23:17:25.031Z,-7.94
2022-12-18T23:19:51.448Z,-7.94
2022-12-18T23:22:17.962Z,-7.92
2022-12-18T23:24:44.482Z,-7.87
2022-12-18T23:27:11.573Z,-7.85
2022-12-18T23:29:39.369Z,-7.80
2022-12-18T23:32:05.862Z,-7.78
2022-12-18T23:34:32.301Z,-7.74
2022-12-18T23:37:00.799Z,-7.67
2022-12-18T23:39:30.100Z,-7.61
2022-12-18T23:42:01.498Z,-7.55
2022-12-18T23:44:28.240Z,-7.55
2022-12-18T23:46:54.798Z,-7.53
2022-12-18T23:49:21.448Z,-7.57
2022-12-18T23:51:48.351Z,-7.55
2022-12-18T23:54:14.821Z,-7.54
2022-12-18T23:56:41.577Z,-7.55
2022-12-18T23:59:07.990Z,-7.59
